Time;durP1;ratioP1;P1;durP2;ratioP2;P2;SDS_P1;SDS_P2;PMS_P1;PMS_P2;Temp;Humidity;BMP_temperature;BMP_pressure;BME280_temperature;BME280_humidity;BME280_pressure;Samples;Min_cycle;Max_cycle;Signal;HPM_P1;HPM_P2
2022/06/28 00:01:33;;;;;;;9.43;6.33;;;;;;;;;;5004007;28;20238;-72
2022/06/28 00:04:00;;;;;;;7.93;6.00;;;;;;;;;;4992376;28;20226;-72
2022/06/28 00:06:27;;;;;;;8.17;5.90;;;;;;;;;;4989357;28;20231;-73
2022/06/28 00:08:53;;;;;;;7.30;5.63;;;;;;;;;;5002211;28;20662;-73
2022/06/28 00:11:20;;;;;;;5.97;5.40;;;;;;;;;;4988514;28;20230;-73
2022/06/28 00:13:47;;;;;;;8.43;5.83;;;;;;;;;;5001891;28;20682;-73
2022/06/28 00:16:16;;;;;;;8.80;6.07;;;;;;;;;;5005803;28;20242;-72
2022/06/28 00:19:00;;;;;;;7.63;6.00;;;;;;;;;;4986662;28;20245;-72
2022/06/28 00:21:28;;;;;;;8.10;5.90;;;;;;;;;;5006752;28;20234;-72
2022/06/28 00:23:55;;;;;;;7.50;6.80;;;;;;;;;;4997683;28;20224;-72
2022/06/28 00:26:21;;;;;;;8.57;6.67;;;;;;;;;;4998760;28;20225;-72
2022/06/28 00:28:49;;;;;;;12.67;7.13;;;;;;;;;;5001686;28;20234;-73
2022/06/28 00:31:16;;;;;;;10.57;6.87;;;;;;;;;;4988713;28;20227;-72
2022/06/28 00:33:43;;;;;;;10.50;7.40;;;;;;;;;;4986497;28;20223;-72
2022/06/28 00:36:09;;;;;;;8.33;6.80;;;;;;;;;;5006236;28;20231;-72
2022/06/28 00:38:36;;;;;;;8.13;6.67;;;;;;;;;;4984646;28;20236;-73
2022/06/28 00:41:03;;;;;;;11.83;7.10;;;;;;;;;;5005570;28;20253;-72
2022/06/28 00:43:30;;;;;;;6.90;6.20;;;;;;;;;;4979370;28;220434;-72
2022/06/28 00:46:14;;;;;;;8.63;6.00;;;;;;;;;;5003870;28;20219;-72
2022/06/28 00:48:41;;;;;;;11.47;5.63;;;;;;;;;;4972271;28;20294;-72
2022/06/28 00:51:25;;;;;;;8.90;7.00;;;;;;;;;;5001950;28;20293;-73
2022/06/28 00:53:52;;;;;;;5.97;5.33;;;;;;;;;;5004700;28;20234;-73
2022/06/28 00:56:19;;;;;;;8.00;6.57;;;;;;;;;;4957782;28;20246;-73
2022/06/28 00:58:45;;;;;;;9.37;5.80;;;;;;;;;;4983174;28;20226;-73
2022/06/28 01:01:12;;;;;;;8.63;7.00;;;;;;;;;;4999444;28;24659;-72
2022/06/28 01:03:39;;;;;;;8.50;6.20;;;;;;;;;;4986263;28;20227;-73
2022/06/28 01:06:06;;;;;;;7.20;6.00;;;;;;;;;;4986729;28;20309;-73
2022/06/28 01:08:50;;;;;;;12.43;5.97;;;;;;;;;;4957203;28;234816;-73
2022/06/28 01:11:20;;;;;;;8.93;6.47;;;;;;;;;;4961688;28;238332;-73
2022/06/28 01:13:50;;;;;;;12.20;7.10;;;;;;;;;;4988857;28;20219;-73
2022/06/28 01:16:19;;;;;;;14.67;7.47;;;;;;;;;;4970668;28;20358;-73
2022/06/28 01:18:47;;;;;;;15.20;8.80;;;;;;;;;;4956654;28;20243;-72
2022/06/28 01:21:30;;;;;;;9.23;6.97;;;;;;;;;;4972672;28;20230;-73
2022/06/28 01:23:58;;;;;;;10.67;7.17;;;;;;;;;;4940857;28;20219;-73
2022/06/28 01:26:38;;;;;;;15.80;7.67;;;;;;;;;;4985757;28;20212;-73
2022/06/28 01:29:05;;;;;;;10.47;7.63;;;;;;;;;;5001786;28;20227;-73
2022/06/28 01:32:18;;;;;;;11.07;7.67;;;;;;;;;;4943362;28;20224;-73
2022/06/28 01:34:45;;;;;;;10.07;7.30;;;;;;;;;;4970817;28;20234;-73
2022/06/28 01:37:14;;;;;;;12.53;8.23;;;;;;;;;;4998783;28;20224;-73
2022/06/28 01:39:40;;;;;;;13.30;8.53;;;;;;;;;;4967684;28;20590;-73
2022/06/28 01:42:07;;;;;;;15.13;8.17;;;;;;;;;;4987156;28;20822;-72
2022/06/28 01:44:39;;;;;;;9.23;6.90;;;;;;;;;;4947687;28;20229;-72
2022/06/28 01:47:28;;;;;;;10.43;8.17;;;;;;;;;;4976996;28;213361;-72
2022/06/28 01:50:14;;;;;;;12.47;7.80;;;;;;;;;;5001871;28;20254;-72
2022/06/28 01:52:44;;;;;;;9.80;7.60;;;;;;;;;;4985514;28;20223;-72
2022/06/28 01:55:46;;;;;;;10.23;8.23;;;;;;;;;;4946452;28;20232;-72
2022/06/28 01:58:37;;;;;;;11.03;6.97;;;;;;;;;;4953205;28;20701;-72
2022/06/28 02:01:04;;;;;;;8.73;7.50;;;;;;;;;;4997727;28;20233;-72
2022/06/28 02:03:31;;;;;;;10.20;7.20;;;;;;;;;;4985403;28;20219;-72
2022/06/28 02:06:08;;;;;;;12.30;7.80;;;;;;;;;;4971691;28;38525;-72
2022/06/28 02:08:39;;;;;;;11.07;7.47;;;;;;;;;;4985242;28;20227;-72
2022/06/28 02:11:11;;;;;;;8.80;6.83;;;;;;;;;;4988475;28;20226;-72
2022/06/28 02:13:47;;;;;;;8.07;6.83;;;;;;;;;;4967807;28;20765;-72
2022/06/28 02:16:14;;;;;;;12.83;8.57;;;;;;;;;;4957269;28;20292;-72
2022/06/28 02:18:41;;;;;;;13.37;8.30;;;;;;;;;;4985257;28;20227;-72
2022/06/28 02:21:09;;;;;;;14.83;7.60;;;;;;;;;;4962876;28;220508;-71
2022/06/28 02:23:35;;;;;;;10.30;8.10;;;;;;;;;;4980763;28;20228;-72
2022/06/28 02:26:02;;;;;;;10.30;8.53;;;;;;;;;;4998424;28;20227;-72
2022/06/28 02:28:30;;;;;;;10.00;7.80;;;;;;;;;;4999701;28;20582;-72
2022/06/28 02:30:57;;;;;;;9.37;7.70;;;;;;;;;;4960342;28;20249;-72
2022/06/28 02:33:24;;;;;;;10.63;7.77;;;;;;;;;;4994603;28;20314;-73
2022/06/28 02:41:24;;;;;;;10.57;8.20;;;;;;;;;;4968877;28;20313;-72
2022/06/28 02:43:51;;;;;;;10.43;8.07;;;;;;;;;;4997915;28;20315;-72
2022/06/28 02:46:18;;;;;;;10.33;7.57;;;;;;;;;;4993039;28;20691;-68
2022/06/28 02:48:45;;;;;;;8.90;8.00;;;;;;;;;;4971614;28;20227;-69
2022/06/28 02:51:12;;;;;;;8.53;7.43;;;;;;;;;;4962797;28;27667;-72
2022/06/28 02:53:38;;;;;;;11.77;9.00;;;;;;;;;;4932552;28;20253;-73
2022/06/28 02:56:05;;;;;;;8.73;7.87;;;;;;;;;;4926689;28;216462;-74
2022/06/28 02:58:32;;;;;;;8.97;7.63;;;;;;;;;;4879668;28;22232;-73
2022/06/28 03:00:59;;;;;;;8.90;8.00;;;;;;;;;;4887434;28;241673;-73
2022/06/28 03:03:28;;;;;;;10.37;7.47;;;;;;;;;;4955227;28;236115;-73
2022/06/28 03:05:55;;;;;;;22.03;8.63;;;;;;;;;;4896853;28;20222;-73
2022/06/28 03:08:22;;;;;;;8.17;7.37;;;;;;;;;;4912001;28;20235;-72
2022/06/28 03:10:50;;;;;;;11.80;7.77;;;;;;;;;;4905680;28;20306;-73
2022/06/28 03:13:34;;;;;;;14.77;8.10;;;;;;;;;;4841529;28;217268;-74
2022/06/28 03:16:02;;;;;;;9.80;7.33;;;;;;;;;;4931745;28;234557;-73
2022/06/28 03:18:28;;;;;;;11.93;7.53;;;;;;;;;;4924731;28;217423;-73
2022/06/28 03:20:55;;;;;;;10.53;7.90;;;;;;;;;;4983984;28;220499;-74
2022/06/28 03:23:22;;;;;;;12.00;8.40;;;;;;;;;;4866189;28;231922;-72
2022/06/28 03:25:48;;;;;;;12.00;8.50;;;;;;;;;;4961473;28;20302;-72
2022/06/28 03:28:15;;;;;;;9.97;7.63;;;;;;;;;;4966278;28;20310;-71
2022/06/28 03:30:45;;;;;;;9.17;7.63;;;;;;;;;;4998345;28;20226;-71
2022/06/28 03:33:12;;;;;;;10.67;8.33;;;;;;;;;;4978560;28;217161;-71
2022/06/28 03:35:56;;;;;;;14.77;8.00;;;;;;;;;;4948411;28;20223;-72
2022/06/28 03:38:29;;;;;;;8.30;7.50;;;;;;;;;;4997043;28;20678;-74
2022/06/28 03:41:22;;;;;;;10.00;7.43;;;;;;;;;;4984954;28;20223;-72
2022/06/28 03:43:54;;;;;;;9.03;6.90;;;;;;;;;;4984486;28;20305;-72
2022/06/28 03:46:38;;;;;;;7.70;7.00;;;;;;;;;;4955956;28;20265;-71
2022/06/28 03:49:24;;;;;;;9.60;7.43;;;;;;;;;;4983794;28;237761;-73
2022/06/28 03:51:53;;;;;;;8.50;7.00;;;;;;;;;;4766499;28;5093225;-72
2022/06/28 03:54:25;;;;;;;11.63;7.77;;;;;;;;;;4875359;28;231763;-72
2022/06/28 03:57:29;;;;;;;10.43;7.53;;;;;;;;;;4942279;28;20239;-77
2022/06/28 03:59:59;;;;;;;10.97;7.07;;;;;;;;;;4890755;28;215668;-72
2022/06/28 04:02:48;;;;;;;13.07;7.47;;;;;;;;;;4928624;28;256833;-73
2022/06/28 04:05:23;;;;;;;12.67;7.53;;;;;;;;;;4942920;28;20270;-72
2022/06/28 04:07:51;;;;;;;8.30;6.97;;;;;;;;;;4920260;28;20224;-72
2022/06/28 04:10:26;;;;;;;9.60;6.93;;;;;;;;;;4911214;28;243808;-71
2022/06/28 04:12:59;;;;;;;9.60;6.87;;;;;;;;;;4935112;28;26695;-72
2022/06/28 04:15:26;;;;;;;8.57;7.10;;;;;;;;;;4935374;28;20752;-73
2022/06/28 04:18:04;;;;;;;11.57;7.20;;;;;;;;;;4876500;28;20345;-73
2022/06/28 04:20:41;;;;;;;10.50;6.83;;;;;;;;;;4958016;28;243775;-73
2022/06/28 04:23:10;;;;;;;7.53;6.83;;;;;;;;;;4936392;28;231245;-74
2022/06/28 04:25:38;;;;;;;10.00;6.80;;;;;;;;;;4950043;28;232835;-71
2022/06/28 04:28:28;;;;;;;10.33;6.90;;;;;;;;;;4949915;28;20224;-71
2022/06/28 04:31:07;;;;;;;9.73;7.07;;;;;;;;;;4943257;28;20795;-71
2022/06/28 04:33:34;;;;;;;9.33;7.23;;;;;;;;;;4970060;28;20231;-70
2022/06/28 04:36:02;;;;;;;8.47;7.47;;;;;;;;;;4972655;28;20232;-71
2022/06/28 04:38:30;;;;;;;8.03;6.97;;;;;;;;;;4938108;28;20232;-72
2022/06/28 04:41:09;;;;;;;10.37;7.17;;;;;;;;;;4944250;28;40424;-71
2022/06/28 04:43:44;;;;;;;7.73;6.60;;;;;;;;;;4873093;28;20219;-73
2022/06/28 04:46:31;;;;;;;7.73;6.47;;;;;;;;;;4937071;28;20312;-72
2022/06/28 04:49:09;;;;;;;8.13;6.40;;;;;;;;;;4970308;28;20727;-70
2022/06/28 04:51:41;;;;;;;10.40;6.47;;;;;;;;;;4968859;28;20259;-69
2022/06/28 04:54:11;;;;;;;7.43;6.40;;;;;;;;;;4971891;28;20231;-69
2022/06/28 04:57:15;;;;;;;7.17;6.43;;;;;;;;;;4950144;28;21103;-69
2022/06/28 04:59:49;;;;;;;10.27;6.83;;;;;;;;;;4970095;28;20235;-71
2022/06/28 05:02:29;;;;;;;7.43;6.50;;;;;;;;;;4957855;28;25498;-72
2022/06/28 05:04:58;;;;;;;8.83;6.60;;;;;;;;;;4962557;28;217749;-73
2022/06/28 05:07:32;;;;;;;7.77;6.40;;;;;;;;;;4912652;28;216600;-71
2022/06/28 05:10:00;;;;;;;9.60;6.53;;;;;;;;;;4896557;28;20762;-72
2022/06/28 05:12:27;;;;;;;7.50;6.40;;;;;;;;;;4928903;28;20687;-76
2022/06/28 05:14:54;;;;;;;8.63;6.27;;;;;;;;;;4968905;28;20228;-77
2022/06/28 05:17:29;;;;;;;8.43;6.20;;;;;;;;;;4975739;28;226275;-75
2022/06/28 05:19:56;;;;;;;9.10;6.63;;;;;;;;;;4952844;28;214131;-75
2022/06/28 05:22:24;;;;;;;9.27;6.10;;;;;;;;;;4975180;28;218781;-74
2022/06/28 05:25:11;;;;;;;8.30;6.10;;;;;;;;;;4983329;28;20233;-75
2022/06/28 05:27:38;;;;;;;8.60;6.53;;;;;;;;;;4981302;28;20304;-75
2022/06/28 05:30:05;;;;;;;10.30;6.40;;;;;;;;;;4984509;28;20247;-75
2022/06/28 05:32:32;;;;;;;11.87;5.70;;;;;;;;;;4982518;28;20307;-75
2022/06/28 05:34:59;;;;;;;10.83;6.47;;;;;;;;;;4985118;28;20647;-76
2022/06/28 05:37:26;;;;;;;7.67;6.07;;;;;;;;;;4977150;28;214830;-76
2022/06/28 05:39:53;;;;;;;7.53;5.87;;;;;;;;;;4985474;28;20227;-76
2022/06/28 05:42:19;;;;;;;9.37;6.40;;;;;;;;;;4974613;28;221996;-76
2022/06/28 05:44:46;;;;;;;8.00;6.27;;;;;;;;;;4983754;28;20250;-77
2022/06/28 05:47:13;;;;;;;8.97;5.83;;;;;;;;;;4983713;28;20686;-77
2022/06/28 05:49:40;;;;;;;6.43;5.63;;;;;;;;;;4978067;28;220621;-77
2022/06/28 05:52:06;;;;;;;6.53;5.93;;;;;;;;;;4983543;28;20232;-77
2022/06/28 05:54:34;;;;;;;8.83;6.20;;;;;;;;;;4996419;28;20742;-77
2022/06/28 05:57:01;;;;;;;8.93;6.30;;;;;;;;;;4997056;28;20276;-77
2022/06/28 05:59:27;;;;;;;8.83;5.80;;;;;;;;;;4986504;28;20234;-77
2022/06/28 06:01:55;;;;;;;9.47;6.07;;;;;;;;;;4973619;28;267171;-77
2022/06/28 06:04:25;;;;;;;6.87;6.00;;;;;;;;;;4981182;28;20231;-76
2022/06/28 06:06:53;;;;;;;7.20;6.03;;;;;;;;;;4983712;28;22713;-77
2022/06/28 06:09:19;;;;;;;8.77;6.37;;;;;;;;;;5002418;28;20227;-77
2022/06/28 06:11:47;;;;;;;7.93;6.70;;;;;;;;;;5000322;28;20228;-77
2022/06/28 06:14:21;;;;;;;7.47;6.37;;;;;;;;;;4984180;28;20220;-76
2022/06/28 06:16:50;;;;;;;7.20;6.07;;;;;;;;;;4986363;28;20231;-77
2022/06/28 06:19:18;;;;;;;7.17;6.47;;;;;;;;;;4979324;28;20234;-77
2022/06/28 06:21:45;;;;;;;9.20;6.27;;;;;;;;;;5001675;28;20957;-77
2022/06/28 06:24:12;;;;;;;8.17;6.10;;;;;;;;;;5002843;28;20277;-76
2022/06/28 06:27:02;;;;;;;8.07;6.00;;;;;;;;;;4912684;28;226212;-77
2022/06/28 06:29:29;;;;;;;11.43;7.30;;;;;;;;;;4966680;28;20233;-76
2022/06/28 06:31:57;;;;;;;9.73;7.13;;;;;;;;;;4984711;28;42343;-76
2022/06/28 06:34:46;;;;;;;11.13;6.60;;;;;;;;;;4973393;28;20284;-76
2022/06/28 06:37:14;;;;;;;8.30;6.70;;;;;;;;;;4962340;28;20224;-76
2022/06/28 06:39:40;;;;;;;9.40;7.20;;;;;;;;;;4978834;28;20238;-76
2022/06/28 06:42:07;;;;;;;11.93;7.73;;;;;;;;;;5000638;28;20220;-75
2022/06/28 06:44:34;;;;;;;10.23;8.00;;;;;;;;;;4984829;28;20219;-76
2022/06/28 06:47:02;;;;;;;11.57;8.30;;;;;;;;;;4958313;28;20313;-76
2022/06/28 06:49:29;;;;;;;13.93;8.23;;;;;;;;;;4979165;28;214336;-75
2022/06/28 06:51:56;;;;;;;11.67;8.60;;;;;;;;;;4997973;28;20240;-75
2022/06/28 06:54:24;;;;;;;11.33;8.70;;;;;;;;;;4985958;28;20234;-76
2022/06/28 06:56:51;;;;;;;8.80;7.10;;;;;;;;;;4983304;28;20219;-76
2022/06/28 06:59:17;;;;;;;11.53;7.60;;;;;;;;;;5001398;28;20227;-75
2022/06/28 07:01:47;;;;;;;8.80;6.93;;;;;;;;;;4954859;28;20233;-76
2022/06/28 07:04:19;;;;;;;9.70;7.00;;;;;;;;;;4965574;28;20311;-76
2022/06/28 07:06:47;;;;;;;9.50;7.10;;;;;;;;;;4966481;28;20629;-76
2022/06/28 07:09:13;;;;;;;8.30;7.50;;;;;;;;;;4967127;28;20231;-76
2022/06/28 07:11:41;;;;;;;9.73;7.43;;;;;;;;;;4984595;28;20231;-76
2022/06/28 07:14:08;;;;;;;8.47;7.13;;;;;;;;;;4972852;28;20703;-76
2022/06/28 07:16:35;;;;;;;10.70;7.80;;;;;;;;;;4965133;28;20685;-76
2022/06/28 07:19:03;;;;;;;13.77;7.37;;;;;;;;;;4983504;28;20239;-76
2022/06/28 07:21:30;;;;;;;8.73;7.50;;;;;;;;;;4989654;28;219026;-76
2022/06/28 07:23:57;;;;;;;9.93;7.73;;;;;;;;;;4961540;28;223095;-77
2022/06/28 07:26:24;;;;;;;8.10;7.23;;;;;;;;;;4976887;28;217702;-76
2022/06/28 07:28:52;;;;;;;9.63;7.43;;;;;;;;;;4991917;28;224941;-76
2022/06/28 07:31:18;;;;;;;8.50;7.07;;;;;;;;;;4959462;28;219040;-76
2022/06/28 07:33:45;;;;;;;9.60;7.50;;;;;;;;;;4969794;28;20257;-76
2022/06/28 07:36:17;;;;;;;10.60;7.20;;;;;;;;;;4977919;28;32445;-76
2022/06/28 07:38:44;;;;;;;9.57;7.60;;;;;;;;;;4982869;28;20227;-77
2022/06/28 07:41:21;;;;;;;8.00;7.20;;;;;;;;;;4991071;28;20223;-76
2022/06/28 07:44:40;;;;;;;11.53;8.17;;;;;;;;;;4996737;28;20211;-75
2022/06/28 07:47:07;;;;;;;9.73;8.73;;;;;;;;;;4966961;28;218743;-76
2022/06/28 07:52:34;;;;;;;8.57;7.47;;;;;;;;;;5004681;28;20219;-76
2022/06/28 07:55:24;;;;;;;10.83;7.67;;;;;;;;;;4987056;28;21096;-77
2022/06/28 07:58:11;;;;;;;10.63;7.70;;;;;;;;;;4997989;28;20231;-76
2022/06/28 08:00:38;;;;;;;9.70;8.30;;;;;;;;;;4990065;28;220515;-77
2022/06/28 08:03:13;;;;;;;10.80;8.03;;;;;;;;;;4959136;28;220131;-77
2022/06/28 08:05:57;;;;;;;11.80;7.87;;;;;;;;;;4969173;28;218966;-76
2022/06/28 08:08:29;;;;;;;9.07;7.60;;;;;;;;;;4979077;28;219842;-76
2022/06/28 08:10:56;;;;;;;11.27;7.27;;;;;;;;;;4981301;28;221364;-76
2022/06/28 08:13:24;;;;;;;7.43;6.83;;;;;;;;;;5001584;28;20273;-76
2022/06/28 08:15:51;;;;;;;10.93;7.63;;;;;;;;;;4940103;28;219922;-75
2022/06/28 08:18:18;;;;;;;11.87;7.37;;;;;;;;;;4947211;28;238788;-77
2022/06/28 08:20:45;;;;;;;9.57;7.13;;;;;;;;;;4986769;28;20234;-76
2022/06/28 08:23:12;;;;;;;10.13;7.77;;;;;;;;;;4966780;28;218542;-76
2022/06/28 08:25:42;;;;;;;10.97;7.57;;;;;;;;;;4963138;28;218522;-75
2022/06/28 08:28:10;;;;;;;10.20;7.20;;;;;;;;;;4910147;28;233304;-78
2022/06/28 08:30:38;;;;;;;11.17;7.73;;;;;;;;;;4960036;28;218680;-77
2022/06/28 08:33:04;;;;;;;8.03;7.33;;;;;;;;;;4949816;28;222387;-76
2022/06/28 08:35:35;;;;;;;8.27;7.17;;;;;;;;;;4957264;28;217939;-76
2022/06/28 08:38:04;;;;;;;10.83;7.47;;;;;;;;;;4961251;28;637071;-76
2022/06/28 08:40:32;;;;;;;8.97;7.27;;;;;;;;;;4990840;28;219008;-76
2022/06/28 08:43:16;;;;;;;10.40;6.73;;;;;;;;;;4995012;28;217424;-75
2022/06/28 08:45:43;;;;;;;6.93;6.23;;;;;;;;;;4968768;28;213536;-76
2022/06/28 08:48:12;;;;;;;9.97;6.57;;;;;;;;;;4951038;28;221445;-76
2022/06/28 08:50:40;;;;;;;8.83;6.13;;;;;;;;;;4971774;28;20235;-77
2022/06/28 08:53:08;;;;;;;8.70;6.27;;;;;;;;;;4959317;28;218522;-77
2022/06/28 08:55:35;;;;;;;9.90;6.33;;;;;;;;;;4995896;28;212999;-76
2022/06/28 08:58:04;;;;;;;6.70;6.03;;;;;;;;;;4996294;28;217244;-76
2022/06/28 09:00:31;;;;;;;7.63;6.57;;;;;;;;;;4986629;28;20598;-73
2022/06/28 09:02:58;;;;;;;6.73;6.03;;;;;;;;;;4988319;28;20231;-71
2022/06/28 09:05:25;;;;;;;9.20;6.20;;;;;;;;;;5003206;28;20250;-71
2022/06/28 09:07:55;;;;;;;7.10;6.13;;;;;;;;;;4988557;28;20223;-71
2022/06/28 09:10:22;;;;;;;7.00;6.40;;;;;;;;;;4987918;28;20241;-73
2022/06/28 09:13:09;;;;;;;8.13;6.53;;;;;;;;;;5000210;28;20275;-71
2022/06/28 09:15:54;;;;;;;7.60;6.13;;;;;;;;;;5001883;28;20245;-72
2022/06/28 09:18:23;;;;;;;6.83;5.50;;;;;;;;;;5005004;28;20229;-72
2022/06/28 09:20:50;;;;;;;8.17;6.10;;;;;;;;;;4985661;28;20227;-72
2022/06/28 09:23:21;;;;;;;7.03;6.20;;;;;;;;;;5005760;28;20226;-72
2022/06/28 09:25:48;;;;;;;7.57;5.70;;;;;;;;;;5002361;28;20226;-72
2022/06/28 09:28:21;;;;;;;7.73;5.90;;;;;;;;;;5002319;28;25968;-72
2022/06/28 09:30:48;;;;;;;12.27;6.53;;;;;;;;;;5003587;28;20228;-72
2022/06/28 09:33:24;;;;;;;7.17;6.07;;;;;;;;;;4986233;28;20227;-73
2022/06/28 09:35:51;;;;;;;7.57;6.17;;;;;;;;;;4990176;28;20218;-73
2022/06/28 09:38:30;;;;;;;7.07;5.90;;;;;;;;;;4919481;28;218703;-76
2022/06/28 09:40:57;;;;;;;6.67;5.83;;;;;;;;;;4904081;28;220573;-77
2022/06/28 09:43:29;;;;;;;8.83;5.80;;;;;;;;;;4969339;28;220605;-77
2022/06/28 09:45:56;;;;;;;7.37;5.60;;;;;;;;;;4979639;28;20231;-72
2022/06/28 09:48:23;;;;;;;6.17;5.53;;;;;;;;;;4955675;28;20294;-74
2022/06/28 09:50:56;;;;;;;8.57;6.00;;;;;;;;;;4995175;28;25736;-73
2022/06/28 09:53:23;;;;;;;7.87;6.23;;;;;;;;;;4959288;28;215004;-74
2022/06/28 09:55:50;;;;;;;7.97;6.80;;;;;;;;;;4992818;28;20239;-75
2022/06/28 09:58:17;;;;;;;8.17;7.37;;;;;;;;;;4921183;28;230336;-74
2022/06/28 10:00:43;;;;;;;9.03;7.10;;;;;;;;;;4966549;28;235847;-74
2022/06/28 10:03:11;;;;;;;7.90;7.20;;;;;;;;;;4917506;28;235799;-77
2022/06/28 10:05:38;;;;;;;9.87;7.97;;;;;;;;;;4982524;28;20336;-77
2022/06/28 10:08:07;;;;;;;9.47;7.13;;;;;;;;;;4942223;28;214763;-75
2022/06/28 10:10:33;;;;;;;12.17;7.73;;;;;;;;;;4947601;28;251845;-74
2022/06/28 10:15:57;;;;;;;9.97;8.97;;;;;;;;;;4997788;28;20223;-74
2022/06/28 10:18:23;;;;;;;10.60;8.97;;;;;;;;;;4992213;28;20265;-75
2022/06/28 10:20:50;;;;;;;11.90;10.10;;;;;;;;;;4943409;28;219402;-72
2022/06/28 10:23:20;;;;;;;10.40;9.30;;;;;;;;;;4979451;28;20233;-73
2022/06/28 10:26:02;;;;;;;10.60;8.87;;;;;;;;;;4981178;28;20231;-70
2022/06/28 10:28:35;;;;;;;9.73;8.83;;;;;;;;;;4911798;28;20294;-71
2022/06/28 10:31:20;;;;;;;9.03;7.80;;;;;;;;;;4920619;28;213892;-75
2022/06/28 10:34:08;;;;;;;8.80;7.00;;;;;;;;;;4910765;28;234113;-79
2022/06/28 10:36:44;;;;;;;8.00;6.80;;;;;;;;;;4981465;28;22596;-73
2022/06/28 10:39:18;;;;;;;7.30;6.60;;;;;;;;;;4889221;28;214232;-76
2022/06/28 10:41:46;;;;;;;7.87;6.57;;;;;;;;;;4977269;28;20252;-74
2022/06/28 10:44:18;;;;;;;7.33;6.43;;;;;;;;;;4905443;28;219995;-74
2022/06/28 10:46:52;;;;;;;8.20;6.47;;;;;;;;;;4921087;28;24445;-72
2022/06/28 10:49:20;;;;;;;7.47;6.27;;;;;;;;;;4910818;28;20226;-72
2022/06/28 10:52:06;;;;;;;6.77;6.17;;;;;;;;;;4966179;28;20237;-72
2022/06/28 10:54:33;;;;;;;6.27;5.70;;;;;;;;;;4987484;28;24234;-74
2022/06/28 10:57:00;;;;;;;6.40;5.80;;;;;;;;;;4987766;28;237837;-69
2022/06/28 10:59:36;;;;;;;6.57;5.60;;;;;;;;;;4994880;28;20246;-72
2022/06/28 11:02:04;;;;;;;6.83;6.13;;;;;;;;;;4912599;28;20234;-71
2022/06/28 11:04:31;;;;;;;6.43;5.83;;;;;;;;;;4945854;28;20243;-77
2022/06/28 11:07:23;;;;;;;7.83;6.27;;;;;;;;;;4954580;28;20224;-73
2022/06/28 11:09:53;;;;;;;6.73;5.97;;;;;;;;;;4975266;28;20241;-74
2022/06/28 11:12:19;;;;;;;7.07;6.40;;;;;;;;;;4956857;28;221234;-74
2022/06/28 11:14:46;;;;;;;9.10;7.60;;;;;;;;;;4969734;28;228649;-76
2022/06/28 11:17:45;;;;;;;9.73;7.57;;;;;;;;;;4967428;28;20222;-76
2022/06/28 11:20:19;;;;;;;8.90;8.00;;;;;;;;;;4957506;28;20235;-74
2022/06/28 11:22:49;;;;;;;8.60;7.80;;;;;;;;;;4959654;28;20322;-74
2022/06/28 11:25:17;;;;;;;8.87;8.07;;;;;;;;;;4993652;28;20223;-72
2022/06/28 11:27:53;;;;;;;8.23;7.43;;;;;;;;;;4990798;28;20681;-72
2022/06/28 11:30:27;;;;;;;8.23;7.53;;;;;;;;;;4978542;28;20692;-73
2022/06/28 11:32:57;;;;;;;8.43;7.63;;;;;;;;;;4970679;28;20238;-76
2022/06/28 11:35:25;;;;;;;9.07;8.00;;;;;;;;;;4966310;28;22314;-72
2022/06/28 11:37:55;;;;;;;8.77;7.97;;;;;;;;;;4972389;28;20220;-72
2022/06/28 11:40:22;;;;;;;9.13;8.23;;;;;;;;;;4964157;28;20709;-74
2022/06/28 11:43:09;;;;;;;9.33;8.50;;;;;;;;;;4974344;28;20239;-75
2022/06/28 11:45:37;;;;;;;8.93;8.20;;;;;;;;;;4940353;28;20250;-73
2022/06/28 11:48:21;;;;;;;10.77;8.98;;;;;;;;;;4922183;28;231798;-75
2022/06/28 11:51:06;;;;;;;9.67;8.17;;;;;;;;;;4942421;28;217442;-74
2022/06/28 11:53:44;;;;;;;10.60;9.23;;;;;;;;;;4956052;28;221059;-73
2022/06/28 11:56:13;;;;;;;9.97;8.97;;;;;;;;;;4970524;28;20223;-71
2022/06/28 11:58:40;;;;;;;11.13;9.47;;;;;;;;;;4877773;28;21675;-72
2022/06/28 12:01:13;;;;;;;11.30;10.10;;;;;;;;;;4953540;28;220824;-71
2022/06/28 12:03:43;;;;;;;10.53;9.47;;;;;;;;;;4950796;28;231581;-74
2022/06/28 12:06:11;;;;;;;10.30;8.93;;;;;;;;;;4955892;28;230410;-74
2022/06/28 12:08:50;;;;;;;10.10;9.20;;;;;;;;;;4954575;28;20707;-73
2022/06/28 12:11:32;;;;;;;9.47;8.53;;;;;;;;;;4957449;28;213131;-71
2022/06/28 12:14:08;;;;;;;9.37;8.30;;;;;;;;;;4985929;28;230365;-74
2022/06/28 12:16:55;;;;;;;10.50;7.83;;;;;;;;;;4901441;28;219704;-73
2022/06/28 12:19:28;;;;;;;8.07;7.10;;;;;;;;;;4922112;28;20561;-74
2022/06/28 12:22:02;;;;;;;7.03;6.17;;;;;;;;;;4967769;28;20262;-73
2022/06/28 12:24:44;;;;;;;7.13;5.47;;;;;;;;;;4956389;28;220582;-74
2022/06/28 12:27:13;;;;;;;8.57;5.60;;;;;;;;;;4985998;28;20250;-72
2022/06/28 12:29:40;;;;;;;7.30;5.23;;;;;;;;;;4961153;28;217894;-72
2022/06/28 12:32:07;;;;;;;6.67;4.70;;;;;;;;;;4982909;28;20227;-73
2022/06/28 12:35:00;;;;;;;5.23;4.73;;;;;;;;;;4978915;28;20546;-74
2022/06/28 12:37:28;;;;;;;5.07;4.00;;;;;;;;;;4923622;28;217989;-70
2022/06/28 12:40:13;;;;;;;4.20;3.20;;;;;;;;;;4951419;28;20230;-72
2022/06/28 12:42:40;;;;;;;3.50;3.20;;;;;;;;;;4975133;28;20623;-69
2022/06/28 12:45:07;;;;;;;4.57;3.20;;;;;;;;;;4977879;28;232139;-72
2022/06/28 12:47:35;;;;;;;3.50;3.13;;;;;;;;;;4995353;28;20227;-74
2022/06/28 12:50:04;;;;;;;3.93;3.53;;;;;;;;;;4952545;28;668127;-76
2022/06/28 12:52:32;;;;;;;3.33;3.03;;;;;;;;;;4925078;28;219903;-76
2022/06/28 12:54:58;;;;;;;4.53;3.23;;;;;;;;;;4979121;28;221293;-73
2022/06/28 12:57:25;;;;;;;4.83;3.20;;;;;;;;;;4959281;28;21011;-73
2022/06/28 12:59:52;;;;;;;4.60;3.17;;;;;;;;;;4978856;28;20231;-73
2022/06/28 13:02:19;;;;;;;4.90;3.47;;;;;;;;;;4995501;28;20310;-72
2022/06/28 13:04:47;;;;;;;4.13;3.30;;;;;;;;;;4952281;28;21348;-72
2022/06/28 13:07:14;;;;;;;3.43;3.13;;;;;;;;;;4960731;28;635712;-74
2022/06/28 13:09:41;;;;;;;4.73;3.43;;;;;;;;;;4949029;28;33109;-74
2022/06/28 13:12:09;;;;;;;3.83;3.47;;;;;;;;;;4961595;28;226226;-81
2022/06/28 13:14:39;;;;;;;3.33;3.03;;;;;;;;;;4901398;28;218101;-72
2022/06/28 13:17:06;;;;;;;3.43;3.13;;;;;;;;;;4966128;28;20220;-70
2022/06/28 13:19:33;;;;;;;5.67;3.80;;;;;;;;;;4998731;28;20313;-70
2022/06/28 13:22:00;;;;;;;5.07;3.87;;;;;;;;;;4940937;28;20243;-72
2022/06/28 13:24:26;;;;;;;6.47;4.20;;;;;;;;;;4986743;28;231596;-72
2022/06/28 13:26:53;;;;;;;5.43;3.97;;;;;;;;;;4995992;28;24588;-71
2022/06/28 13:29:19;;;;;;;6.43;4.23;;;;;;;;;;4995531;28;20227;-71
2022/06/28 13:31:46;;;;;;;6.80;4.13;;;;;;;;;;4990003;28;213469;-72
2022/06/28 13:34:18;;;;;;;6.60;4.50;;;;;;;;;;4983058;28;20230;-72
2022/06/28 13:36:45;;;;;;;6.53;4.10;;;;;;;;;;4976755;28;20721;-71
2022/06/28 13:39:12;;;;;;;5.00;4.07;;;;;;;;;;4971287;28;216098;-74
2022/06/28 13:41:56;;;;;;;5.27;4.00;;;;;;;;;;4915432;28;240492;-73
2022/06/28 13:44:24;;;;;;;5.70;4.00;;;;;;;;;;4888531;28;20733;-73
2022/06/28 13:47:09;;;;;;;5.73;4.40;;;;;;;;;;4965084;28;230746;-73
2022/06/28 13:49:40;;;;;;;7.47;4.70;;;;;;;;;;4989732;28;22170;-72
2022/06/28 13:52:08;;;;;;;5.23;4.37;;;;;;;;;;4963510;28;215811;-70
2022/06/28 13:54:35;;;;;;;6.60;4.90;;;;;;;;;;4994724;28;20365;-70
2022/06/28 13:57:03;;;;;;;5.03;4.20;;;;;;;;;;4933093;28;230017;-70
2022/06/28 13:59:30;;;;;;;6.37;4.50;;;;;;;;;;4972229;28;224031;-70
2022/06/28 14:01:56;;;;;;;4.80;4.40;;;;;;;;;;4973785;28;218043;-71
2022/06/28 14:04:24;;;;;;;4.90;4.23;;;;;;;;;;4951192;28;231126;-73
2022/06/28 14:06:51;;;;;;;5.80;4.50;;;;;;;;;;4928925;28;234289;-73
2022/06/28 14:09:19;;;;;;;4.97;4.47;;;;;;;;;;4937612;28;232135;-72
2022/06/28 14:11:46;;;;;;;6.03;4.23;;;;;;;;;;4987036;28;25300;-72
2022/06/28 14:14:15;;;;;;;4.47;4.07;;;;;;;;;;4986896;28;20712;-73
2022/06/28 14:16:42;;;;;;;5.07;4.50;;;;;;;;;;4987118;28;20238;-72
2022/06/28 14:19:08;;;;;;;5.00;4.60;;;;;;;;;;4985359;28;20293;-72
2022/06/28 14:21:36;;;;;;;5.37;4.10;;;;;;;;;;5004638;28;20259;-72
2022/06/28 14:24:02;;;;;;;7.27;4.23;;;;;;;;;;5001710;28;20239;-73
2022/06/28 14:26:29;;;;;;;3.97;3.57;;;;;;;;;;5001164;28;20594;-73
2022/06/28 14:28:56;;;;;;;4.90;3.80;;;;;;;;;;4984355;28;20631;-73
2022/06/28 14:31:23;;;;;;;3.90;3.57;;;;;;;;;;4998871;28;20216;-72
2022/06/28 14:34:13;;;;;;;3.70;3.40;;;;;;;;;;4984191;28;20298;-74
2022/06/28 14:36:41;;;;;;;3.43;2.90;;;;;;;;;;5000787;28;20281;-74
2022/06/28 14:39:07;;;;;;;3.57;3.10;;;;;;;;;;4986394;28;20234;-74
2022/06/28 14:41:34;;;;;;;3.57;3.27;;;;;;;;;;4994562;28;20255;-73
2022/06/28 14:44:00;;;;;;;7.53;3.00;;;;;;;;;;4994346;28;20235;-72
2022/06/28 14:46:27;;;;;;;3.13;2.83;;;;;;;;;;4999263;28;20223;-74
2022/06/28 14:49:14;;;;;;;3.20;2.90;;;;;;;;;;5001363;28;20231;-73
2022/06/28 14:51:42;;;;;;;5.47;3.17;;;;;;;;;;4954350;28;20219;-72
2022/06/28 14:54:09;;;;;;;3.50;3.00;;;;;;;;;;4949230;28;20231;-73
2022/06/28 14:56:36;;;;;;;2.97;2.73;;;;;;;;;;4939332;28;20662;-73
2022/06/28 14:59:02;;;;;;;3.07;2.77;;;;;;;;;;4953543;28;221365;-75
2022/06/28 15:01:46;;;;;;;5.07;3.10;;;;;;;;;;4987757;28;21720;-71
2022/06/28 15:04:13;;;;;;;3.43;2.40;;;;;;;;;;4982329;28;20231;-71
2022/06/28 15:06:40;;;;;;;2.87;2.53;;;;;;;;;;4981721;28;20241;-71
2022/06/28 15:09:07;;;;;;;2.83;2.63;;;;;;;;;;4992124;28;26343;-72
2022/06/28 15:11:34;;;;;;;4.37;2.87;;;;;;;;;;4930400;28;20219;-71